Blue Oak Ranch Reserve, California Weather observations

Data are for 10 minute period ending at time listed.
 Day   Time   Solar   Ave.   Ave.  Ave.  Vector  Max.   Baro.   Total    
  of    of     Rad.   Air    Rel.  Wind   Wind   Wind  Press.  Precip.   
Year   Day            Temp.  Hum.  Speed  Dir.   Gust                    
2026   (PST)  Kw/m2    F      %     mph   deg.    mph    mb.     in.     
-------------------------------------------------------------------------
 129    0:00   0.00   45.4    93    1.5   288     3.1   949.9    0.00 
 129    0:10   0.00   45.0    93    2.0    77     2.9   949.8    0.00 
 129    0:20   0.00   44.9    93    0.2    91     1.1   949.7    0.00 
 129    0:30   0.00   44.2    92    1.3   285     2.6   949.6    0.00 
 129    0:40   0.00   44.2    93    0.5   294     1.5   949.6    0.00 
 129    0:50   0.00   44.3    93    2.0    69     3.5   949.8    0.00 
 129    1:00   0.00   44.3    94    1.8    69     3.3   949.7    0.00 
 129    1:10   0.00   44.0    94    2.0   283     4.3   949.5    0.00 
 129    1:20   0.00   44.0    94    1.3   309     3.1   949.5    0.00 
 129    1:30   0.00   44.2    94    0.7    92     2.3   949.5    0.00 
 129    1:40   0.00   44.4    94    0.6   275     2.0   949.4    0.00 
 129    1:50   0.00   44.3    94    0.1   133     0.8   949.3    0.00 
 129    2:00   0.00   44.4    94    0.0   132     0.4   949.1    0.00 
 129    2:10   0.00   44.3    94    0.1   272     1.2   949.1    0.00 
 129    2:20   0.00   44.4    94    0.6   277     1.8   949.1    0.00 
 129    2:30   0.00   44.3    94    0.4    54     1.5   949.1    0.00 
 129    2:40   0.00   44.6    94    0.7    72     2.1   949.1    0.00 
 129    2:50   0.00   44.5    94    0.2   286     1.5   949.0    0.00 
 129    3:00   0.00   44.9    95    1.0   287     2.1   949.0    0.00 
 129    3:10   0.00   45.1    94    0.5   289     2.2   948.9    0.00 
 129    3:20   0.00   45.2    94    0.2    81     1.5   948.9    0.00 
 129    3:30   0.00   45.4    94    0.1    65     1.7   948.9    0.00 
 129    3:40   0.00   45.2    94    0.9    57     2.3   948.9    0.00 
 129    3:50   0.00   44.9    94    0.5   277     1.8   949.0    0.00 
 129    4:00   0.00   44.9    94    0.3    85     1.7   949.0    0.00 
 129    4:10   0.00   44.9    93    0.0   179     0.7   948.9    0.00 
 129    4:20   0.00   44.9    93    0.0    12     0.6   948.8    0.00 
 129    4:30   0.00   44.7    93    0.4   327     1.9   948.8    0.00 
 129    4:40   0.00   44.7    92    0.5    57     2.2   948.8    0.00 
 129    4:50   0.00   44.7    92    0.3    31     1.3   948.9    0.00 
 129    5:00   0.00   44.7    92    0.8    54     3.2   948.9    0.00 
 129    5:10   0.01   44.6    91    1.6   276     2.8   949.0    0.00 
 129    5:20   0.01   44.1    92    0.9    55     2.0   949.1    0.00 
 129    5:30   0.01   44.5    92    1.2    70     2.6   949.1    0.00 
 129    5:40   0.02   44.5    91    0.8   283     2.4   949.1    0.00 
 129    5:50   0.02   44.6    91    0.1    18     1.1   949.1    0.00 
 129    6:00   0.03   45.6    92    0.0    48     0.7   949.1    0.00 
 129    6:10   0.13   46.7    91    0.0     0     0.0   949.1    0.00 
 129    6:20   0.19   49.1    88    0.2    94     1.0   949.2    0.00 
 129    6:30   0.22   53.2    81    0.2    95     1.4   949.2    0.00 
 129    6:40   0.26   56.9    76    0.1    43     1.0   949.3    0.00 
 129    6:50   0.29   60.7    72    0.1    15     1.0   949.4    0.00 
 129    7:00   0.33   63.3    68    0.3   130     1.4   949.3    0.00 
 129    7:10   0.36   64.7    64    0.1   138     0.8   949.4    0.00 
 129    7:20   0.40   68.1    53    0.0   145     0.5   949.4    0.00 
 129    7:30   0.43   68.3    51    0.4   179     1.5   949.4    0.00 
 129    7:40   0.46   69.0    50    0.5   151     1.8   949.5    0.00 
 129    7:50   0.50   68.5    54    1.5   160     2.9   949.5    0.00 
 129    8:00   0.53   66.9    57    2.2   154     3.1   949.5    0.00 
 129    8:10   0.56   67.7    56    2.0   145     3.4   949.5    0.00 
 129    8:20   0.60   68.3    55    2.2   171     4.3   949.6    0.00 
 129    8:30   0.63   68.7    54    2.0   168     3.9   949.5    0.00 
 129    8:40   0.66   69.2    52    3.8   232     5.6   949.5    0.00 
 129    8:50   0.69   68.0    53    3.4   242     5.1   949.6    0.00 
 129    9:00   0.72   68.3    54    3.6   239     6.6   949.6    0.00 
 129    9:10   0.74   67.1    56    3.6   227     7.5   949.6    0.00 
 129    9:20   0.77   68.8    54    3.1   233     5.8   949.7    0.00 
 129    9:30   0.80   69.0    55    4.5   232     6.6   949.7    0.00 
 129    9:40   0.82   67.9    57    5.0   229     6.9   949.7    0.00 
 129    9:50   0.84   67.3    58    4.9   232     7.6   949.8    0.00 
 129   10:00   0.86   67.5    58    5.0   244     9.0   949.8    0.00 
 129   10:10   0.88   67.0    58    4.7   231     7.8   949.8    0.00 
 129   10:20   0.90   67.8    58    4.4   243     7.5   949.8    0.00 
 129   10:30   0.92   70.7    54    4.6   262     7.0   949.8    0.00 
 129   10:40   0.94   71.6    53    4.1   256     7.3   949.7    0.00 
 129   10:50   0.95   69.0    55    6.2   225     9.8   949.8    0.00 
 129   11:00   0.96   67.4    57    6.4   229    10.1   949.8    0.00 
 129   11:10   0.97   67.7    57    5.6   218    10.6   949.7    0.00 
 129   11:20   0.98   68.5    57    4.7   238     9.8   949.7    0.00 
 129   11:30   0.99   69.6    55    3.9   257     8.2   949.7    0.00 
 129   11:40   0.99   70.0    54    4.3   233     8.7   949.6    0.00 
 129   11:50   1.00   70.1    54    5.6   229    10.4   949.5    0.00 
 129   12:00   1.00   69.3    56    5.6   222     9.6   949.5    0.00 
 129   12:10   1.00   69.6    56    6.0   225    10.8   949.4    0.00 
 129   12:20   1.00   70.6    54    6.4   250    11.7   949.4    0.00 
 129   12:30   1.00   69.8    55    6.8   227    11.1   949.4    0.00 
 129   12:40   0.99   69.5    55    7.0   231    11.1   949.4    0.00 
 129   12:50   0.95   69.4    56    6.2   232    12.1   949.3    0.00 
 129   13:00   0.98   70.5    54    5.7   235    11.8   949.2    0.00 
 129   13:10   0.97   70.5    54    7.4   225    13.0   949.2    0.00 
 129   13:20   0.96   71.3    53    5.8   239    11.5   949.2    0.00 
 129   13:30   0.95   71.0    52    7.2   227    11.6   949.1    0.00 
 129   13:40   0.94   71.9    52    6.2   243    12.4   949.0    0.00 
 129   13:50   0.92   72.6    51    5.4   233    12.4   949.0    0.00 
 129   14:00   0.90   72.2    52    5.6   226    10.8   949.0    0.00 
 129   14:10   0.89   71.1    53    7.7   228    11.5   948.9    0.00 
 129   14:20   0.87   71.5    52    6.5   234    11.8   949.0    0.00 
 129   14:30   0.84   71.5    52    7.1   229    11.5   948.9    0.00 
 129   14:40   0.82   71.6    51    6.7   241    12.0   948.8    0.00 
 129   14:50   0.79   71.7    51    5.6   238    11.0   948.6    0.00 
 129   15:00   0.78   71.2    52    7.0   230    14.4   948.5    0.00 
 129   15:10   0.75   70.8    52    7.0   228    11.0   948.5    0.00 
 129   15:20   0.71   70.9    51    6.2   228    11.0   948.5    0.00 
 129   15:30   0.69   71.9    50    5.9   247    12.1   948.5    0.00 
 129   15:40   0.65   69.9    52    6.1   242    10.9   948.5    0.00 
 129   15:50   0.62   70.4    52    4.5   241     8.0   948.5    0.00 
 129   16:00   0.60   71.0    51    5.0   247     9.2   948.5    0.00 
 129   16:10   0.56   70.4    52    5.6   237    10.2   948.4    0.00 
 129   16:20   0.53   70.1    53    4.8   244     8.3   948.4    0.00 
 129   16:30   0.49   69.6    54    6.0   247    11.1   948.5    0.00 
 129   16:40   0.46   68.9    55    5.9   241     9.5   948.4    0.00 
 129   16:50   0.42   68.5    56    4.4   242     8.6   948.4    0.00 
 129   17:00   0.38   68.5    55    5.5   245     8.5   948.4    0.00 
 129   17:10   0.35   67.6    56    4.6   236     8.0   948.4    0.00 
 129   17:20   0.32   67.2    57    3.8   239     7.2   948.4    0.00 
 129   17:30   0.28   66.6    58    4.6   234     7.1   948.4    0.00 
 129   17:40   0.25   66.4    58    4.3   253     6.9   948.4    0.00 
 129   17:50   0.21   67.0    57    3.3   256     5.2   948.4    0.00 
 129   18:00   0.18   66.9    58    3.6   263     6.2   948.4    0.00 
 129   18:10   0.14   66.9    58    2.7   268     4.8   948.4    0.00 
 129   18:20   0.11   67.3    57    4.0   279     5.9   948.3    0.00 
 129   18:30   0.08   66.3    58    3.9   282     5.9   948.3    0.00 
 129   18:40   0.05   64.3    62    3.8   292     5.9   948.3    0.00 
 129   18:50   0.02   62.8    65    3.8   302     5.3   948.3    0.00 
 129   19:00   0.01   62.2    65    4.9   301     5.8   948.3    0.00 
 129   19:10   0.01   61.4    68    2.7   309     4.9   948.3    0.00 
 129   19:20   0.00   59.3    74    0.4   111     1.9   948.3    0.00 
 129   19:30   0.00   57.6    77    0.3   213     1.2   948.3    0.00 
 129   19:40   0.00   56.5    80    0.8   282     2.4   948.3    0.00 
 129   19:50   0.00   55.6    82    0.3   339     1.8   948.4    0.00 
 129   20:00   0.00   55.0    82    0.1   330     1.0   948.5    0.00 
 129   20:10   0.00   54.2    82    1.0    62     2.3   948.5    0.00 
 129   20:20   0.00   53.4    83    0.7   317     2.1   948.6    0.00 
 129   20:30   0.00   53.0    85    0.4   282     2.0   948.7    0.00 
 129   20:40   0.00   52.3    85    1.0    52     2.0   948.7    0.00 
 129   20:50   0.00   51.7    85    1.3   286     3.1   948.7    0.00 
 129   21:00   0.00   51.4    87    1.6   292     3.3   948.7    0.00 
 129   21:10   0.00   51.1    87    0.4   354     1.7   948.7    0.00 
 129   21:20   0.00   50.8    87    1.1    62     1.9   948.7    0.00 
 129   21:30   0.00   50.3    88    0.6   285     2.5   948.7    0.00 
 129   21:40   0.00   50.0    89    0.4   281     1.5   948.7    0.00 
 129   21:50   0.00   49.7    89    0.9    46     1.9   948.8    0.00 
 129   22:00   0.00   49.3    89    0.9    62     2.3   948.8    0.00 
 129   22:10   0.00   48.9    89    1.2   284     2.8   948.7    0.00 
 129   22:20   0.00   48.4    90    0.4   277     2.6   948.6    0.00 
 129   22:30   0.00   48.2    90    0.1    25     0.8   948.5    0.00 
 129   22:40   0.00   48.1    90    1.1    56     2.1   948.6    0.00 
 129   22:50   0.00   47.7    90    0.4   285     1.6   948.5    0.00 
 129   23:00   0.00   47.5    91    0.0   172     0.3   948.5    0.00 
 129   23:10   0.00   47.2    90    0.1   283     2.3   948.5    0.00 
 129   23:20   0.00   46.7    91    0.0     0     0.0   948.4    0.00 
 129   23:30   0.00   46.6    91    0.3   268     1.2   948.4    0.00 
 129   23:40   0.00   46.5    91    0.2    39     1.2   948.4    0.00 
 129   23:50   0.00   46.0    91    0.7   304     1.8   948.4    0.00 

Return to Blue Oak Ranch Reserve graphs page.


Western Regional Climate Center,wrcc@dri.edu